Time;durP1;ratioP1;P1;durP2;ratioP2;P2;SDS_P1;SDS_P2;PMS_P1;PMS_P2;Temp;Humidity;BMP_temperature;BMP_pressure;BME280_temperature;BME280_humidity;BME280_pressure;Samples;Min_cycle;Max_cycle;Signal;HPM_P1;HPM_P2
2021/04/25 00:01:11;;;;;;;10.73;4.20;;;;;;;;;;5099280;28;20199;-60
2021/04/25 00:03:38;;;;;;;8.80;4.38;;;;;;;;;;5101696;28;20206;-60
2021/04/25 00:06:05;;;;;;;6.88;3.50;;;;;;;;;;5101773;28;20236;-61
2021/04/25 00:08:32;;;;;;;7.80;3.85;;;;;;;;;;5102457;28;20226;-61
2021/04/25 00:10:59;;;;;;;6.28;3.50;;;;;;;;;;5102065;28;20216;-60
2021/04/25 00:13:26;;;;;;;7.93;3.70;;;;;;;;;;5102494;28;20209;-60
2021/04/25 00:15:52;;;;;;;6.53;3.72;;;;;;;;;;5100255;28;20247;-60
2021/04/25 00:18:19;;;;;;;8.13;3.95;;;;;;;;;;5098421;28;20741;-60
2021/04/25 00:20:47;;;;;;;9.45;4.13;;;;;;;;;;5101549;28;20307;-60
2021/04/25 00:23:14;;;;;;;10.05;4.03;;;;;;;;;;5107043;28;20566;-60
2021/04/25 00:25:40;;;;;;;8.35;3.67;;;;;;;;;;5109463;28;20225;-61
2021/04/25 00:28:07;;;;;;;11.35;4.20;;;;;;;;;;5106584;28;20227;-61
2021/04/25 00:30:34;;;;;;;7.88;4.57;;;;;;;;;;5107267;28;20669;-60
2021/04/25 00:33:01;;;;;;;11.13;4.63;;;;;;;;;;5105816;28;20202;-61
2021/04/25 00:35:28;;;;;;;6.35;4.07;;;;;;;;;;5102813;28;20225;-60
2021/04/25 00:37:56;;;;;;;5.80;3.50;;;;;;;;;;5101721;28;20199;-60
2021/04/25 00:40:22;;;;;;;8.18;3.75;;;;;;;;;;5101019;28;20203;-60
2021/04/25 00:42:50;;;;;;;7.65;4.05;;;;;;;;;;5098233;28;20203;-60
2021/04/25 00:45:17;;;;;;;9.32;4.38;;;;;;;;;;5097740;28;20235;-61
2021/04/25 00:47:45;;;;;;;8.23;3.88;;;;;;;;;;5097899;28;20203;-61
2021/04/25 00:50:12;;;;;;;7.60;4.03;;;;;;;;;;5097485;28;20199;-61
2021/04/25 00:52:41;;;;;;;6.80;3.72;;;;;;;;;;5097636;28;20253;-61
2021/04/25 00:55:11;;;;;;;6.18;3.53;;;;;;;;;;5097273;28;20223;-60
2021/04/25 00:57:37;;;;;;;7.50;3.70;;;;;;;;;;5098106;28;20203;-61
2021/04/25 01:00:05;;;;;;;8.27;3.65;;;;;;;;;;5097708;28;20203;-61
2021/04/25 01:02:32;;;;;;;9.13;4.45;;;;;;;;;;5097267;28;20211;-61
2021/04/25 01:04:58;;;;;;;9.00;4.70;;;;;;;;;;5097402;28;20222;-60
2021/04/25 01:07:25;;;;;;;8.30;3.88;;;;;;;;;;5097040;28;20219;-61
2021/04/25 01:09:52;;;;;;;13.13;4.55;;;;;;;;;;5097229;28;20221;-61
2021/04/25 01:12:20;;;;;;;6.15;4.10;;;;;;;;;;5097320;28;20203;-60
2021/04/25 01:14:47;;;;;;;7.53;3.95;;;;;;;;;;5096999;28;20628;-61
2021/04/25 01:17:13;;;;;;;8.07;3.85;;;;;;;;;;5097093;28;20574;-61
2021/04/25 01:19:40;;;;;;;13.88;4.35;;;;;;;;;;5096771;28;20735;-61
2021/04/25 01:22:08;;;;;;;11.02;4.03;;;;;;;;;;5096896;28;20532;-61
2021/04/25 01:24:34;;;;;;;9.73;4.00;;;;;;;;;;5097024;28;20207;-62
2021/04/25 01:27:01;;;;;;;9.18;4.13;;;;;;;;;;5099100;28;20233;-61
2021/04/25 01:29:28;;;;;;;14.65;4.03;;;;;;;;;;5097379;28;20220;-61
2021/04/25 01:31:55;;;;;;;8.18;4.43;;;;;;;;;;5099401;28;20248;-61
2021/04/25 01:34:21;;;;;;;5.78;3.97;;;;;;;;;;5097190;28;20204;-61
2021/04/25 01:36:49;;;;;;;7.85;3.33;;;;;;;;;;5097023;28;20221;-60
2021/04/25 01:39:18;;;;;;;8.63;3.72;;;;;;;;;;5096586;28;20296;-60
2021/04/25 01:41:44;;;;;;;7.10;3.83;;;;;;;;;;5096609;28;20676;-62
2021/04/25 01:44:11;;;;;;;8.38;3.90;;;;;;;;;;5096476;28;20731;-61
2021/04/25 01:46:38;;;;;;;9.15;3.97;;;;;;;;;;5096136;28;20226;-62
2021/04/25 01:49:05;;;;;;;11.02;3.85;;;;;;;;;;5096161;28;20226;-61
2021/04/25 01:51:31;;;;;;;6.90;4.15;;;;;;;;;;5096326;28;20210;-61
2021/04/25 01:53:58;;;;;;;8.85;4.30;;;;;;;;;;5096363;28;20201;-62
2021/04/25 01:56:26;;;;;;;7.88;3.75;;;;;;;;;;5095993;28;20228;-61
2021/04/25 01:58:53;;;;;;;6.70;3.63;;;;;;;;;;5096240;28;20203;-60
2021/04/25 02:01:20;;;;;;;8.50;3.65;;;;;;;;;;5096201;28;20232;-60
2021/04/25 02:03:46;;;;;;;8.70;3.53;;;;;;;;;;5096170;28;20271;-59
2021/04/25 02:06:13;;;;;;;10.98;4.30;;;;;;;;;;5095806;28;20236;-60
2021/04/25 02:08:40;;;;;;;4.90;3.58;;;;;;;;;;5095512;28;20212;-61
2021/04/25 02:11:07;;;;;;;7.95;3.97;;;;;;;;;;5095818;28;20210;-61
2021/04/25 02:13:34;;;;;;;9.63;4.20;;;;;;;;;;5096458;28;20208;-61
2021/04/25 02:16:01;;;;;;;6.72;3.90;;;;;;;;;;5095723;28;20271;-60
2021/04/25 02:18:28;;;;;;;10.57;3.88;;;;;;;;;;5095509;28;20703;-60
2021/04/25 02:20:55;;;;;;;6.60;3.95;;;;;;;;;;5095515;28;20725;-59
2021/04/25 02:23:21;;;;;;;8.73;4.00;;;;;;;;;;5095444;28;20568;-61
2021/04/25 02:25:48;;;;;;;8.52;3.50;;;;;;;;;;5095789;28;20630;-60
2021/04/25 02:28:15;;;;;;;6.68;3.58;;;;;;;;;;5095767;28;20248;-61
2021/04/25 02:30:44;;;;;;;7.88;3.40;;;;;;;;;;5095495;28;20275;-61
2021/04/25 02:33:11;;;;;;;6.28;3.45;;;;;;;;;;5095442;28;20207;-61
2021/04/25 02:35:38;;;;;;;9.30;4.82;;;;;;;;;;5096315;28;20220;-60
2021/04/25 02:38:05;;;;;;;7.05;3.85;;;;;;;;;;5095987;28;20206;-61
2021/04/25 02:40:33;;;;;;;6.65;3.80;;;;;;;;;;5103981;28;20205;-60
2021/04/25 02:42:59;;;;;;;11.50;4.45;;;;;;;;;;5116087;28;20214;-61
2021/04/25 02:45:27;;;;;;;10.32;4.20;;;;;;;;;;5116245;28;20227;-61
2021/04/25 02:47:55;;;;;;;6.68;3.20;;;;;;;;;;5115090;28;20187;-60
2021/04/25 02:50:23;;;;;;;8.23;4.07;;;;;;;;;;5102899;28;20794;-61
2021/04/25 02:52:50;;;;;;;8.70;3.95;;;;;;;;;;5095913;28;20206;-61
2021/04/25 02:55:17;;;;;;;4.72;4.20;;;;;;;;;;5094876;28;20225;-61
2021/04/25 02:57:43;;;;;;;10.88;4.22;;;;;;;;;;5094669;28;20210;-61
2021/04/25 03:00:11;;;;;;;4.95;3.58;;;;;;;;;;5095025;28;20267;-60
2021/04/25 03:02:38;;;;;;;6.20;3.95;;;;;;;;;;5094784;28;20201;-60
2021/04/25 03:05:06;;;;;;;8.60;4.05;;;;;;;;;;5094658;28;20233;-61
2021/04/25 03:07:33;;;;;;;11.85;4.18;;;;;;;;;;5094684;28;20218;-61
2021/04/25 03:10:00;;;;;;;5.10;4.00;;;;;;;;;;5094785;28;20217;-60
2021/04/25 03:12:27;;;;;;;9.65;3.92;;;;;;;;;;5094577;28;20251;-61
2021/04/25 03:14:54;;;;;;;7.47;3.65;;;;;;;;;;5094572;28;20764;-61
2021/04/25 03:17:21;;;;;;;8.82;4.30;;;;;;;;;;5094455;28;20206;-61
2021/04/25 03:19:47;;;;;;;7.47;3.50;;;;;;;;;;5094476;28;20578;-61
2021/04/25 03:22:15;;;;;;;5.13;3.90;;;;;;;;;;5094164;28;20600;-60
2021/04/25 03:24:42;;;;;;;10.68;3.72;;;;;;;;;;5096184;28;20200;-60
2021/04/25 03:27:09;;;;;;;6.13;3.67;;;;;;;;;;5102880;28;20204;-61
2021/04/25 03:29:35;;;;;;;7.38;3.63;;;;;;;;;;5110311;28;20219;-60
2021/04/25 03:32:02;;;;;;;8.45;4.93;;;;;;;;;;5111316;28;20212;-60
2021/04/25 03:34:29;;;;;;;7.18;4.10;;;;;;;;;;5110852;28;20206;-60
2021/04/25 03:36:55;;;;;;;7.35;4.03;;;;;;;;;;5109232;28;20227;-60
2021/04/25 03:39:23;;;;;;;7.40;4.05;;;;;;;;;;5102930;28;20202;-60
2021/04/25 03:41:50;;;;;;;9.45;4.60;;;;;;;;;;5104236;28;20201;-60
2021/04/25 03:44:17;;;;;;;5.97;3.78;;;;;;;;;;5105778;28;20206;-59
2021/04/25 03:46:44;;;;;;;6.43;4.00;;;;;;;;;;5101101;28;20220;-60
2021/04/25 03:49:10;;;;;;;6.63;3.60;;;;;;;;;;5098311;28;20218;-60
2021/04/25 03:51:37;;;;;;;8.50;4.50;;;;;;;;;;5099229;28;20236;-60
2021/04/25 03:54:04;;;;;;;11.93;3.80;;;;;;;;;;5100058;28;20208;-60
2021/04/25 03:56:32;;;;;;;9.50;4.40;;;;;;;;;;5099849;28;20244;-61
2021/04/25 03:59:00;;;;;;;7.78;3.90;;;;;;;;;;5097234;28;20196;-61
2021/04/25 04:01:27;;;;;;;10.52;3.95;;;;;;;;;;5096593;28;20692;-60
2021/04/25 04:03:54;;;;;;;14.60;3.83;;;;;;;;;;5097288;28;20700;-59
2021/04/25 04:08:01;;;;;;;8.38;4.20;;;;;;;;;;5114946;27;20596;-60
2021/04/25 04:10:28;;;;;;;5.95;4.18;;;;;;;;;;5113807;28;20207;-59
2021/04/25 04:12:55;;;;;;;9.88;4.45;;;;;;;;;;5113979;28;20200;-60
2021/04/25 04:15:21;;;;;;;6.07;3.53;;;;;;;;;;5113084;28;20292;-61
2021/04/25 04:17:48;;;;;;;8.55;3.95;;;;;;;;;;5111913;28;20196;-60
2021/04/25 04:20:15;;;;;;;10.15;4.25;;;;;;;;;;5111729;28;20251;-62
2021/04/25 04:22:42;;;;;;;10.75;5.22;;;;;;;;;;5111312;28;20203;-61
2021/04/25 04:25:10;;;;;;;7.30;4.30;;;;;;;;;;5111041;28;20216;-61
2021/04/25 04:27:37;;;;;;;9.80;4.57;;;;;;;;;;5111285;28;20232;-62
2021/04/25 04:30:04;;;;;;;7.03;3.67;;;;;;;;;;5111345;28;20204;-61
2021/04/25 04:32:31;;;;;;;11.45;4.38;;;;;;;;;;5111257;28;20207;-61
2021/04/25 04:34:58;;;;;;;9.40;3.42;;;;;;;;;;5111203;28;20270;-61
2021/04/25 04:37:25;;;;;;;7.35;4.65;;;;;;;;;;5111160;28;20191;-62
2021/04/25 04:39:51;;;;;;;5.57;4.05;;;;;;;;;;5110819;28;20679;-61
2021/04/25 04:42:19;;;;;;;7.78;4.43;;;;;;;;;;5111229;28;20200;-61
2021/04/25 04:44:46;;;;;;;8.77;3.90;;;;;;;;;;5111215;28;20226;-61
2021/04/25 04:47:13;;;;;;;8.93;5.07;;;;;;;;;;5110968;28;20218;-60
2021/04/25 04:49:39;;;;;;;8.73;4.53;;;;;;;;;;5110885;28;20238;-60
2021/04/25 04:52:06;;;;;;;11.88;4.70;;;;;;;;;;5110989;28;20205;-59
2021/04/25 04:54:33;;;;;;;7.35;4.40;;;;;;;;;;5110609;28;20235;-62
2021/04/25 04:57:00;;;;;;;6.75;4.40;;;;;;;;;;5110984;28;20635;-61
2021/04/25 04:59:28;;;;;;;7.57;4.10;;;;;;;;;;5110872;28;20223;-61
2021/04/25 05:01:55;;;;;;;7.63;4.80;;;;;;;;;;5110368;28;20196;-60
2021/04/25 05:04:21;;;;;;;7.25;5.22;;;;;;;;;;5110571;28;20207;-60
2021/04/25 05:06:48;;;;;;;8.48;4.43;;;;;;;;;;5110146;28;20765;-59
2021/04/25 05:09:15;;;;;;;10.15;5.32;;;;;;;;;;5110600;28;20200;-61
2021/04/25 05:11:42;;;;;;;12.95;4.50;;;;;;;;;;5110514;28;20196;-61
2021/04/25 05:14:08;;;;;;;10.30;5.22;;;;;;;;;;5110162;28;20196;-62
2021/04/25 05:16:36;;;;;;;8.80;4.50;;;;;;;;;;5110448;28;20220;-60
2021/04/25 05:19:03;;;;;;;7.65;4.32;;;;;;;;;;5098614;28;20214;-62
2021/04/25 05:21:30;;;;;;;8.00;4.40;;;;;;;;;;5096754;28;20620;-60
2021/04/25 05:23:56;;;;;;;13.55;4.30;;;;;;;;;;5096879;28;20197;-61
2021/04/25 05:26:23;;;;;;;7.60;4.70;;;;;;;;;;5097357;28;20281;-61
2021/04/25 05:28:50;;;;;;;11.30;4.57;;;;;;;;;;5097314;28;20578;-61
2021/04/25 05:31:17;;;;;;;7.43;4.03;;;;;;;;;;5097482;28;20283;-60
2021/04/25 05:33:44;;;;;;;7.85;4.88;;;;;;;;;;5097798;28;20208;-61
2021/04/25 05:36:11;;;;;;;7.80;4.53;;;;;;;;;;5097471;28;20213;-60
2021/04/25 05:38:38;;;;;;;7.38;4.10;;;;;;;;;;5097395;28;20201;-60
2021/04/25 05:41:05;;;;;;;7.38;4.07;;;;;;;;;;5097340;28;20200;-61
2021/04/25 05:43:31;;;;;;;8.93;3.95;;;;;;;;;;5097320;28;20200;-60
2021/04/25 05:45:58;;;;;;;4.78;3.55;;;;;;;;;;5098268;28;20224;-60
2021/04/25 05:48:25;;;;;;;10.18;4.32;;;;;;;;;;5099465;28;20197;-61
2021/04/25 05:50:52;;;;;;;6.88;3.42;;;;;;;;;;5099996;28;20205;-60
2021/04/25 05:53:20;;;;;;;7.65;3.80;;;;;;;;;;5099566;28;20200;-61
2021/04/25 05:55:46;;;;;;;4.47;3.35;;;;;;;;;;5100994;28;20650;-60
2021/04/25 05:58:13;;;;;;;5.57;3.38;;;;;;;;;;5101939;28;20629;-62
2021/04/25 06:00:40;;;;;;;7.25;4.18;;;;;;;;;;5100239;28;20580;-60
2021/04/25 06:03:07;;;;;;;7.93;3.85;;;;;;;;;;5097348;28;20201;-60
2021/04/25 06:05:33;;;;;;;7.90;3.15;;;;;;;;;;5097020;28;20232;-62
2021/04/25 06:08:01;;;;;;;7.50;3.35;;;;;;;;;;5097146;28;20225;-61
2021/04/25 06:10:28;;;;;;;4.78;2.92;;;;;;;;;;5095931;28;20672;-62
2021/04/25 06:12:55;;;;;;;4.80;2.58;;;;;;;;;;5096205;28;20205;-61
2021/04/25 06:15:23;;;;;;;9.65;3.30;;;;;;;;;;5095800;28;20221;-61
2021/04/25 06:17:50;;;;;;;6.65;3.60;;;;;;;;;;5095674;28;20205;-60
2021/04/25 06:20:17;;;;;;;3.60;2.60;;;;;;;;;;5095409;28;20203;-61
2021/04/25 06:22:44;;;;;;;6.82;2.67;;;;;;;;;;5095476;28;20211;-61
2021/04/25 06:25:12;;;;;;;5.80;2.40;;;;;;;;;;5096336;28;20217;-62
2021/04/25 06:27:39;;;;;;;7.53;2.30;;;;;;;;;;5095297;28;20701;-62
2021/04/25 06:30:06;;;;;;;4.03;2.60;;;;;;;;;;5094469;28;20252;-61
2021/04/25 06:32:33;;;;;;;5.45;2.63;;;;;;;;;;5095471;28;20207;-61
2021/04/25 06:35:00;;;;;;;4.15;2.30;;;;;;;;;;5095465;28;20223;-61
2021/04/25 06:37:27;;;;;;;3.00;2.30;;;;;;;;;;5095562;28;20193;-61
2021/04/25 06:39:54;;;;;;;4.22;2.20;;;;;;;;;;5097188;28;20205;-61
2021/04/25 06:42:21;;;;;;;5.00;2.45;;;;;;;;;;5096373;28;20670;-62
2021/04/25 06:44:48;;;;;;;7.13;2.70;;;;;;;;;;5095513;28;20575;-61
2021/04/25 06:47:15;;;;;;;9.77;2.80;;;;;;;;;;5096512;28;20699;-61
2021/04/25 06:49:42;;;;;;;4.03;2.30;;;;;;;;;;5096002;28;20211;-61
2021/04/25 06:52:11;;;;;;;4.97;2.50;;;;;;;;;;5095410;28;20244;-62
2021/04/25 06:54:39;;;;;;;3.92;2.00;;;;;;;;;;5095125;28;20608;-63
2021/04/25 06:57:05;;;;;;;5.50;2.17;;;;;;;;;;5095281;28;20223;-61
2021/04/25 06:59:33;;;;;;;6.10;1.90;;;;;;;;;;5095898;28;20247;-61
2021/04/25 07:02:00;;;;;;;9.32;2.17;;;;;;;;;;5098266;28;20201;-61
2021/04/25 07:04:27;;;;;;;6.30;2.15;;;;;;;;;;5097739;28;20219;-61
2021/04/25 07:06:53;;;;;;;6.15;2.13;;;;;;;;;;5095499;28;20587;-61
2021/04/25 07:09:20;;;;;;;5.75;2.40;;;;;;;;;;5094996;28;20618;-62
2021/04/25 07:11:47;;;;;;;5.95;2.40;;;;;;;;;;5094867;28;20576;-60
2021/04/25 07:14:14;;;;;;;10.38;3.10;;;;;;;;;;5094800;28;20284;-61
2021/04/25 07:16:41;;;;;;;8.25;2.42;;;;;;;;;;5094954;28;20221;-62
2021/04/25 07:19:08;;;;;;;4.50;2.38;;;;;;;;;;5094542;28;20202;-61
2021/04/25 07:21:36;;;;;;;4.20;1.77;;;;;;;;;;5094635;28;20204;-60
2021/04/25 07:24:03;;;;;;;4.82;1.92;;;;;;;;;;5095304;28;20201;-61
2021/04/25 07:26:29;;;;;;;3.63;1.60;;;;;;;;;;5094229;28;20227;-61
2021/04/25 07:28:56;;;;;;;5.65;1.85;;;;;;;;;;5094561;28;20204;-61
2021/04/25 07:31:23;;;;;;;7.32;1.75;;;;;;;;;;5105217;28;20236;-61
2021/04/25 07:33:50;;;;;;;3.60;2.38;;;;;;;;;;5100698;28;20201;-60
2021/04/25 07:36:17;;;;;;;4.88;2.05;;;;;;;;;;5093994;28;20568;-61
2021/04/25 07:38:44;;;;;;;5.30;1.95;;;;;;;;;;5094657;28;20574;-60
2021/04/25 07:41:11;;;;;;;6.65;1.48;;;;;;;;;;5094519;28;20217;-61
2021/04/25 07:43:38;;;;;;;2.10;1.65;;;;;;;;;;5094882;28;20218;-61
2021/04/25 07:46:05;;;;;;;7.78;1.80;;;;;;;;;;5094409;28;20225;-60
2021/04/25 07:48:32;;;;;;;10.07;2.35;;;;;;;;;;5094824;28;20202;-60
2021/04/25 07:51:00;;;;;;;4.85;1.85;;;;;;;;;;5094394;28;20213;-61
2021/04/25 07:53:27;;;;;;;4.00;1.75;;;;;;;;;;5094306;28;20205;-61
2021/04/25 07:55:54;;;;;;;5.15;2.17;;;;;;;;;;5094429;28;20221;-61
2021/04/25 07:58:21;;;;;;;5.28;2.50;;;;;;;;;;5094141;28;20619;-61
2021/04/25 08:00:48;;;;;;;3.47;1.70;;;;;;;;;;5094432;28;20531;-61
2021/04/25 08:03:14;;;;;;;6.57;2.55;;;;;;;;;;5094048;28;20673;-63
2021/04/25 08:05:41;;;;;;;3.25;1.48;;;;;;;;;;5094110;28;20740;-62
2021/04/25 08:08:09;;;;;;;12.35;3.08;;;;;;;;;;5094635;28;20233;-60
2021/04/25 08:10:36;;;;;;;9.18;2.15;;;;;;;;;;5094469;28;20564;-60
2021/04/25 08:13:02;;;;;;;4.38;1.83;;;;;;;;;;5094211;28;20204;-61
2021/04/25 08:15:29;;;;;;;4.95;2.38;;;;;;;;;;5094003;28;20223;-60
2021/04/25 08:17:56;;;;;;;4.78;2.15;;;;;;;;;;5093612;28;20199;-60
2021/04/25 08:20:23;;;;;;;4.97;2.03;;;;;;;;;;5093839;28;20242;-61
2021/04/25 08:22:50;;;;;;;4.00;2.00;;;;;;;;;;5093532;28;20204;-61
2021/04/25 08:25:18;;;;;;;5.05;2.17;;;;;;;;;;5093405;28;20647;-61
2021/04/25 08:27:45;;;;;;;4.13;2.17;;;;;;;;;;5093664;28;20219;-60
2021/04/25 08:30:12;;;;;;;4.50;2.20;;;;;;;;;;5093695;28;20207;-59
2021/04/25 08:32:39;;;;;;;5.00;1.60;;;;;;;;;;5093343;28;20242;-61
2021/04/25 08:35:07;;;;;;;6.25;2.38;;;;;;;;;;5093498;28;20744;-61
2021/04/25 08:37:33;;;;;;;3.88;1.90;;;;;;;;;;5093212;28;20206;-61
2021/04/25 08:40:00;;;;;;;4.28;1.92;;;;;;;;;;5093355;28;20198;-61
2021/04/25 08:42:28;;;;;;;4.72;2.15;;;;;;;;;;5094438;28;20701;-62
2021/04/25 08:44:55;;;;;;;3.72;1.90;;;;;;;;;;5110997;28;20207;-61
2021/04/25 08:47:24;;;;;;;4.50;1.70;;;;;;;;;;5112229;28;20255;-61
2021/04/25 08:49:52;;;;;;;5.07;2.95;;;;;;;;;;5112771;28;20262;-61
2021/04/25 08:52:22;;;;;;;6.80;2.05;;;;;;;;;;5113797;28;20200;-61
2021/04/25 08:54:48;;;;;;;5.95;2.05;;;;;;;;;;5102915;28;20217;-61
2021/04/25 08:57:15;;;;;;;3.78;1.73;;;;;;;;;;5100091;28;20276;-61
2021/04/25 08:59:43;;;;;;;3.95;1.65;;;;;;;;;;5101344;28;20229;-60
2021/04/25 09:02:10;;;;;;;2.60;1.38;;;;;;;;;;5102456;28;20212;-62
2021/04/25 09:04:36;;;;;;;6.97;2.35;;;;;;;;;;5101924;28;20253;-62
2021/04/25 09:07:04;;;;;;;3.75;1.95;;;;;;;;;;5102327;28;20289;-61
2021/04/25 09:09:44;;;;;;;4.90;1.90;;;;;;;;;;5101171;28;20209;-63
2021/04/25 09:12:12;;;;;;;3.50;1.90;;;;;;;;;;5100415;28;20214;-62
2021/04/25 09:14:40;;;;;;;2.75;2.10;;;;;;;;;;5097973;28;20211;-62
2021/04/25 09:17:08;;;;;;;4.13;1.63;;;;;;;;;;5099019;28;20203;-62
2021/04/25 09:19:48;;;;;;;3.80;2.00;;;;;;;;;;5101566;28;20203;-61
2021/04/25 09:22:15;;;;;;;6.55;3.28;;;;;;;;;;5102079;28;20214;-62
2021/04/25 09:24:42;;;;;;;2.95;1.70;;;;;;;;;;5100288;28;20203;-62
2021/04/25 09:27:09;;;;;;;3.65;2.20;;;;;;;;;;5100400;28;20231;-61
2021/04/25 09:29:49;;;;;;;3.90;2.25;;;;;;;;;;5099489;28;20200;-62
2021/04/25 09:32:17;;;;;;;3.28;1.95;;;;;;;;;;5099209;28;20732;-61
2021/04/25 09:34:44;;;;;;;3.53;1.90;;;;;;;;;;5099626;28;20204;-61
2021/04/25 09:37:15;;;;;;;8.63;2.35;;;;;;;;;;5100513;28;20630;-62
2021/04/25 09:39:57;;;;;;;2.75;2.03;;;;;;;;;;5103017;28;20429;-63
2021/04/25 09:42:24;;;;;;;4.25;2.20;;;;;;;;;;5106221;28;20210;-61
2021/04/25 09:44:51;;;;;;;4.90;2.15;;;;;;;;;;5106369;28;20231;-61
2021/04/25 09:47:19;;;;;;;13.27;3.65;;;;;;;;;;5106858;28;20258;-61
2021/04/25 09:49:48;;;;;;;3.70;2.20;;;;;;;;;;5109358;28;20203;-61
2021/04/25 09:52:16;;;;;;;4.38;2.45;;;;;;;;;;5106917;28;20681;-62
2021/04/25 09:54:43;;;;;;;3.40;2.55;;;;;;;;;;5104181;28;20211;-62
2021/04/25 09:57:29;;;;;;;6.45;2.65;;;;;;;;;;5103079;28;20248;-60
2021/04/25 09:59:56;;;;;;;6.50;2.88;;;;;;;;;;5103825;28;20661;-62
2021/04/25 10:02:24;;;;;;;3.43;2.30;;;;;;;;;;5103557;28;20197;-62
2021/04/25 10:04:52;;;;;;;5.22;2.72;;;;;;;;;;5101276;28;20455;-60
2021/04/25 10:07:19;;;;;;;7.33;2.67;;;;;;;;;;5100491;28;20220;-61
2021/04/25 10:09:45;;;;;;;2.80;2.30;;;;;;;;;;5101260;28;20439;-61
2021/04/25 10:12:12;;;;;;;3.50;2.70;;;;;;;;;;5102699;28;20522;-60
2021/04/25 10:14:39;;;;;;;5.47;2.80;;;;;;;;;;5099802;28;20481;-61
2021/04/25 10:17:06;;;;;;;4.93;2.60;;;;;;;;;;5098101;28;20425;-60
2021/04/25 10:19:33;;;;;;;5.37;2.20;;;;;;;;;;5096231;28;20934;-61
2021/04/25 10:22:00;;;;;;;2.90;2.60;;;;;;;;;;5095925;28;20501;-59
2021/04/25 10:24:27;;;;;;;5.87;2.73;;;;;;;;;;5096021;28;20443;-60
2021/04/25 10:26:56;;;;;;;4.40;2.60;;;;;;;;;;5095500;28;20852;-61
2021/04/25 10:29:29;;;;;;;3.00;2.40;;;;;;;;;;5095358;28;20973;-61
2021/04/25 10:32:00;;;;;;;6.10;3.30;;;;;;;;;;5095397;28;20450;-60
2021/04/25 10:34:27;;;;;;;4.00;3.00;;;;;;;;;;5095539;28;20423;-61
2021/04/25 10:37:04;;;;;;;5.67;2.70;;;;;;;;;;5095044;28;20656;-61
2021/04/25 10:39:39;;;;;;;4.23;2.60;;;;;;;;;;5095059;28;20850;-61
2021/04/25 10:42:30;;;;;;;4.13;2.40;;;;;;;;;;5095777;28;20442;-61
2021/04/25 10:45:25;;;;;;;3.83;2.97;;;;;;;;;;5079995;28;20443;-61
2021/04/25 10:48:11;;;;;;;4.40;3.00;;;;;;;;;;5094932;28;20467;-60
2021/04/25 10:50:45;;;;;;;4.50;2.47;;;;;;;;;;5096159;28;20992;-62
2021/04/25 10:53:19;;;;;;;3.07;2.70;;;;;;;;;;5109584;28;20423;-61
2021/04/25 10:55:47;;;;;;;3.73;2.80;;;;;;;;;;5099478;28;20461;-61
2021/04/25 10:58:17;;;;;;;3.87;2.70;;;;;;;;;;5098088;28;20494;-60
2021/04/25 11:00:45;;;;;;;3.13;2.70;;;;;;;;;;5097054;28;20443;-60
2021/04/25 11:03:12;;;;;;;5.23;2.53;;;;;;;;;;5096323;28;20537;-60
2021/04/25 11:05:43;;;;;;;4.93;2.43;;;;;;;;;;5095506;28;20484;-61
2021/04/25 11:08:25;;;;;;;5.43;2.87;;;;;;;;;;5095544;28;20469;-60
2021/04/25 11:10:54;;;;;;;5.10;2.60;;;;;;;;;;5096806;28;20435;-60
2021/04/25 11:13:39;;;;;;;5.03;3.20;;;;;;;;;;5096028;28;20443;-60
2021/04/25 11:16:06;;;;;;;3.70;2.40;;;;;;;;;;5095867;28;20492;-61
2021/04/25 11:18:59;;;;;;;4.30;2.40;;;;;;;;;;5096122;28;20438;-60
2021/04/25 11:21:47;;;;;;;5.43;2.30;;;;;;;;;;5096969;28;20773;-60
2021/04/25 11:24:32;;;;;;;3.63;2.30;;;;;;;;;;5095528;28;20451;-62
2021/04/25 11:27:01;;;;;;;3.80;2.73;;;;;;;;;;5095280;28;20482;-62
2021/04/25 11:29:46;;;;;;;2.10;1.87;;;;;;;;;;5095965;28;20446;-60
2021/04/25 11:32:23;;;;;;;3.37;2.00;;;;;;;;;;5095478;28;20447;-61
2021/04/25 11:35:13;;;;;;;3.30;1.50;;;;;;;;;;5095021;28;20442;-61
2021/04/25 11:37:40;;;;;;;2.63;1.80;;;;;;;;;;5091163;28;20443;-61
2021/04/25 11:40:08;;;;;;;3.67;1.90;;;;;;;;;;5095485;28;20442;-61
2021/04/25 11:42:37;;;;;;;1.70;1.53;;;;;;;;;;5094533;28;20439;-61
2021/04/25 11:45:07;;;;;;;2.90;1.70;;;;;;;;;;5093720;28;20982;-62
2021/04/25 11:47:34;;;;;;;2.47;1.70;;;;;;;;;;5094139;28;20481;-60
2021/04/25 11:50:03;;;;;;;3.13;1.90;;;;;;;;;;5094025;28;20488;-62
2021/04/25 11:52:31;;;;;;;4.50;1.70;;;;;;;;;;5094001;28;20820;-61
2021/04/25 11:55:03;;;;;;;2.60;1.87;;;;;;;;;;5093683;28;20474;-61
2021/04/25 11:57:31;;;;;;;6.53;2.00;;;;;;;;;;5093906;28;20794;-61
2021/04/25 11:59:59;;;;;;;4.13;1.77;;;;;;;;;;5093573;28;20961;-61
2021/04/25 12:02:27;;;;;;;2.83;2.03;;;;;;;;;;5093888;28;20447;-61
2021/04/25 12:04:55;;;;;;;3.00;1.57;;;;;;;;;;5099175;28;20468;-61
2021/04/25 12:07:31;;;;;;;1.80;1.50;;;;;;;;;;5103422;28;20539;-61
2021/04/25 12:09:58;;;;;;;1.80;1.57;;;;;;;;;;5105618;28;20462;-61
2021/04/25 12:12:25;;;;;;;2.50;1.70;;;;;;;;;;5111105;28;20435;-60
2021/04/25 12:15:02;;;;;;;1.90;1.27;;;;;;;;;;5109472;28;20508;-61
2021/04/25 12:17:30;;;;;;;4.57;1.80;;;;;;;;;;5105667;28;20435;-61
2021/04/25 12:19:57;;;;;;;2.40;1.40;;;;;;;;;;5105108;28;20438;-62
2021/04/25 12:22:24;;;;;;;3.60;1.87;;;;;;;;;;5105467;28;20454;-65
2021/04/25 12:24:54;;;;;;;2.50;1.30;;;;;;;;;;5107442;28;20453;-63
2021/04/25 12:27:21;;;;;;;2.40;1.20;;;;;;;;;;5108003;28;20467;-62
2021/04/25 12:29:48;;;;;;;2.80;1.40;;;;;;;;;;5108111;28;20441;-63
2021/04/25 12:32:19;;;;;;;2.83;1.17;;;;;;;;;;5107922;28;20479;-62
2021/04/25 12:34:56;;;;;;;1.90;1.70;;;;;;;;;;5106118;28;20766;-62
2021/04/25 12:37:36;;;;;;;2.43;1.50;;;;;;;;;;5107279;28;20430;-63
2021/04/25 12:40:04;;;;;;;1.70;1.40;;;;;;;;;;5107139;28;20507;-61
2021/04/25 12:42:30;;;;;;;1.80;1.60;;;;;;;;;;5100078;28;20446;-62
2021/04/25 12:44:57;;;;;;;1.83;1.63;;;;;;;;;;5099509;28;20496;-64
2021/04/25 12:47:33;;;;;;;2.90;1.50;;;;;;;;;;5098731;28;20474;-62
2021/04/25 12:50:13;;;;;;;1.50;1.40;;;;;;;;;;5098246;28;20515;-63
2021/04/25 12:52:40;;;;;;;2.77;1.50;;;;;;;;;;5097045;28;20517;-64
2021/04/25 12:55:07;;;;;;;2.23;1.83;;;;;;;;;;5096934;28;20535;-64
2021/04/25 12:57:34;;;;;;;2.33;1.40;;;;;;;;;;5097053;28;20457;-64
2021/04/25 13:00:00;;;;;;;3.03;1.80;;;;;;;;;;5097274;28;20439;-62
2021/04/25 13:02:33;;;;;;;2.27;1.57;;;;;;;;;;5097546;28;20447;-61
2021/04/25 13:05:05;;;;;;;1.93;1.70;;;;;;;;;;5097185;28;20994;-59
2021/04/25 13:07:36;;;;;;;2.07;1.50;;;;;;;;;;5096854;28;20488;-60
2021/04/25 13:10:26;;;;;;;2.00;1.17;;;;;;;;;;5097709;28;20454;-62
2021/04/25 13:12:54;;;;;;;1.90;1.30;;;;;;;;;;5097269;28;20431;-61
2021/04/25 13:15:29;;;;;;;2.13;1.30;;;;;;;;;;5097585;28;20466;-62
2021/04/25 13:17:58;;;;;;;3.37;1.60;;;;;;;;;;5096580;28;20430;-61
2021/04/25 13:20:26;;;;;;;1.63;1.43;;;;;;;;;;5096891;28;20438;-64
2021/04/25 13:22:58;;;;;;;3.53;1.97;;;;;;;;;;5097194;28;20443;-62
2021/04/25 13:25:26;;;;;;;2.60;1.80;;;;;;;;;;5096573;28;20489;-62
2021/04/25 13:27:56;;;;;;;3.10;1.47;;;;;;;;;;5097039;28;20474;-61
2021/04/25 13:30:23;;;;;;;2.90;1.37;;;;;;;;;;5096730;28;20458;-63
2021/04/25 13:32:50;;;;;;;2.60;2.07;;;;;;;;;;5097281;28;20461;-62
2021/04/25 13:35:18;;;;;;;1.90;1.60;;;;;;;;;;5097020;28;20466;-62
2021/04/25 13:37:45;;;;;;;2.10;1.30;;;;;;;;;;5097229;28;20467;-63
2021/04/25 13:40:12;;;;;;;2.03;1.47;;;;;;;;;;5097424;28;20453;-63
2021/04/25 13:42:39;;;;;;;3.33;1.50;;;;;;;;;;5098974;28;20455;-62
2021/04/25 13:45:06;;;;;;;3.10;1.40;;;;;;;;;;5097044;28;20462;-61
2021/04/25 13:47:33;;;;;;;2.23;1.30;;;;;;;;;;5100692;28;20488;-62
2021/04/25 13:50:01;;;;;;;2.50;1.40;;;;;;;;;;5098274;28;20803;-63
2021/04/25 13:52:28;;;;;;;2.13;1.50;;;;;;;;;;5098892;28;20443;-62
2021/04/25 13:54:55;;;;;;;2.67;1.50;;;;;;;;;;5098055;28;20499;-62
2021/04/25 13:57:22;;;;;;;2.60;1.20;;;;;;;;;;5097129;28;20435;-61
2021/04/25 13:59:49;;;;;;;1.60;1.30;;;;;;;;;;5097719;28;20505;-63
2021/04/25 14:02:16;;;;;;;2.67;1.33;;;;;;;;;;5096566;28;20451;-60
2021/04/25 14:04:42;;;;;;;1.40;1.10;;;;;;;;;;5096904;28;20939;-61
2021/04/25 14:07:10;;;;;;;1.93;1.37;;;;;;;;;;5096672;28;20493;-63
2021/04/25 14:09:38;;;;;;;3.73;1.50;;;;;;;;;;5096428;28;20447;-61
2021/04/25 14:12:05;;;;;;;1.90;1.40;;;;;;;;;;5096142;28;20447;-62
2021/04/25 14:14:32;;;;;;;3.10;1.47;;;;;;;;;;5096392;28;20453;-62
2021/04/25 14:16:59;;;;;;;4.23;1.33;;;;;;;;;;5096216;28;20454;-60
2021/04/25 14:19:26;;;;;;;1.47;1.10;;;;;;;;;;5095599;28;20458;-60
2021/04/25 14:21:53;;;;;;;3.50;1.30;;;;;;;;;;5096050;28;20457;-60
2021/04/25 14:24:20;;;;;;;2.23;1.20;;;;;;;;;;5108853;28;20443;-59
2021/04/25 14:26:48;;;;;;;1.63;1.20;;;;;;;;;;5110522;28;20560;-60
2021/04/25 14:29:15;;;;;;;3.20;1.57;;;;;;;;;;5109897;28;20442;-61
2021/04/25 14:31:41;;;;;;;2.30;1.27;;;;;;;;;;5105271;28;20461;-60
2021/04/25 14:34:08;;;;;;;2.37;1.27;;;;;;;;;;5096584;28;20446;-60
2021/04/25 14:36:35;;;;;;;2.87;1.80;;;;;;;;;;5096525;28;20865;-60
2021/04/25 14:39:02;;;;;;;3.07;1.60;;;;;;;;;;5096150;28;20963;-60
2021/04/25 14:41:30;;;;;;;1.73;1.10;;;;;;;;;;5095892;28;20453;-60
2021/04/25 14:43:58;;;;;;;2.10;2.00;;;;;;;;;;5095563;28;20879;-60
2021/04/25 14:46:25;;;;;;;1.80;1.00;;;;;;;;;;5095283;28;20466;-59
2021/04/25 14:48:52;;;;;;;2.50;1.47;;;;;;;;;;5095891;28;20478;-59